Time;durP1;ratioP1;P1;durP2;ratioP2;P2;SDS_P1;SDS_P2;PMS_P1;PMS_P2;Temp;Humidity;BMP_temperature;BMP_pressure;BME280_temperature;BME280_humidity;BME280_pressure;Samples;Min_cycle;Max_cycle;Signal;HPM_P1;HPM_P2
2021/12/16 00:07:12;;;;;;;63.37;30.60;;;;;;;;;;5000126;28;20268;-71
2021/12/16 00:09:53;;;;;;;66.33;30.57;;;;;;;;;;5004961;28;20681;-71
2021/12/16 00:34:22;;;;;;;83.43;34.73;;;;;;;;;;5002225;28;20620;-71
2021/12/16 00:36:48;;;;;;;85.30;36.37;;;;;;;;;;5002336;28;20187;-71
2021/12/16 00:39:19;;;;;;;85.20;35.07;;;;;;;;;;5002333;28;20233;-71
2021/12/16 00:41:48;;;;;;;84.77;36.63;;;;;;;;;;4994338;28;20229;-71
2021/12/16 00:44:25;;;;;;;88.60;36.63;;;;;;;;;;5010574;28;20198;-70
2021/12/16 00:47:01;;;;;;;88.53;36.00;;;;;;;;;;4996976;28;20557;-71
2021/12/16 00:54:50;;;;;;;110.77;39.87;;;;;;;;;;5001274;28;20229;-70
2021/12/16 00:57:16;;;;;;;106.50;39.67;;;;;;;;;;4995643;28;20175;-70
2021/12/16 00:59:46;;;;;;;111.40;38.73;;;;;;;;;;5002506;28;21210;-71
2021/12/16 01:08:10;;;;;;;104.20;41.40;;;;;;;;;;5003091;28;20179;-70
2021/12/16 01:36:03;;;;;;;122.30;42.73;;;;;;;;;;5000523;28;20562;-71
2021/12/16 01:40:43;;;;;;;116.15;40.17;;;;;;;;;;4994374;28;20626;-70
2021/12/16 01:51:14;;;;;;;114.20;38.83;;;;;;;;;;4995960;28;20202;-70
2021/12/16 01:54:26;;;;;;;108.13;37.73;;;;;;;;;;5002622;28;20194;-70
2021/12/16 01:56:51;;;;;;;107.10;38.73;;;;;;;;;;5009371;28;20263;-70
2021/12/16 01:59:20;;;;;;;118.80;39.60;;;;;;;;;;5012477;28;20347;-71
2021/12/16 02:01:46;;;;;;;115.07;39.30;;;;;;;;;;5006067;28;20327;-70
2021/12/16 02:04:28;;;;;;;113.63;39.07;;;;;;;;;;5011931;28;20537;-71
2021/12/16 02:09:31;;;;;;;122.33;39.07;;;;;;;;;;5016628;28;20194;-70
2021/12/16 02:12:11;;;;;;;117.17;39.67;;;;;;;;;;4996766;28;20189;-71
2021/12/16 02:28:52;;;;;;;120.17;39.30;;;;;;;;;;5005478;28;20287;-70
2021/12/16 02:31:51;;;;;;;109.00;35.70;;;;;;;;;;5006228;28;20209;-71
2021/12/16 02:34:56;;;;;;;109.90;36.60;;;;;;;;;;5002731;28;20187;-71
2021/12/16 02:37:20;;;;;;;115.83;37.17;;;;;;;;;;5005275;28;20225;-70
2021/12/16 02:39:45;;;;;;;106.20;36.87;;;;;;;;;;5005061;28;20585;-71
2021/12/16 02:42:18;;;;;;;115.87;38.77;;;;;;;;;;5009462;28;20186;-70
2021/12/16 02:48:29;;;;;;;114.10;37.50;;;;;;;;;;5010859;28;20317;-71
2021/12/16 02:50:18;;;;;;;107.07;37.03;;;;;;;;;;5001500;28;20285;-71
2021/12/16 02:52:43;;;;;;;103.40;37.25;;;;;;;;;;5010425;28;20191;-71
2021/12/16 02:55:10;;;;;;;97.70;36.67;;;;;;;;;;4998700;28;20217;-71
2021/12/16 02:57:45;;;;;;;107.82;36.50;;;;;;;;;;5016841;28;20225;-71
2021/12/16 03:00:14;;;;;;;108.37;36.73;;;;;;;;;;4998511;28;20305;-71
2021/12/16 03:02:41;;;;;;;102.35;35.60;;;;;;;;;;5002347;28;20660;-70
2021/12/16 03:05:09;;;;;;;104.10;37.30;;;;;;;;;;5001771;28;20194;-71
2021/12/16 03:07:34;;;;;;;104.35;37.33;;;;;;;;;;5009253;28;20194;-71
2021/12/16 03:19:08;;;;;;;107.10;35.78;;;;;;;;;;5007217;28;20241;-71
2021/12/16 03:20:54;;;;;;;106.75;36.97;;;;;;;;;;5001605;28;20341;-71
2021/12/16 03:26:27;;;;;;;96.80;37.05;;;;;;;;;;5001658;28;20619;-71
2021/12/16 03:34:28;;;;;;;93.57;34.90;;;;;;;;;;5009013;28;20194;-71
2021/12/16 03:37:15;;;;;;;107.53;37.58;;;;;;;;;;4998507;28;20734;-71
2021/12/16 03:39:55;;;;;;;98.70;36.33;;;;;;;;;;5010545;28;20263;-71
2021/12/16 03:42:32;;;;;;;103.57;37.43;;;;;;;;;;4999595;28;20216;-70
2021/12/16 03:45:06;;;;;;;100.80;36.80;;;;;;;;;;5004158;28;20524;-70
2021/12/16 03:47:43;;;;;;;95.17;35.33;;;;;;;;;;4996564;28;20481;-70
2021/12/16 03:50:15;;;;;;;103.53;36.17;;;;;;;;;;5006987;28;20669;-70
2021/12/16 03:52:40;;;;;;;95.97;34.77;;;;;;;;;;4997669;28;20567;-70
2021/12/16 03:55:08;;;;;;;99.32;37.22;;;;;;;;;;5005153;28;20232;-70
2021/12/16 03:57:34;;;;;;;111.57;37.63;;;;;;;;;;5000940;28;20273;-70
2021/12/16 04:00:00;;;;;;;108.07;37.63;;;;;;;;;;5006640;28;20209;-71
2021/12/16 04:02:29;;;;;;;110.77;39.27;;;;;;;;;;5002663;28;20584;-70
2021/12/16 04:04:56;;;;;;;101.17;37.57;;;;;;;;;;5004875;28;20226;-70
2021/12/16 04:07:24;;;;;;;106.20;36.23;;;;;;;;;;4998871;28;20261;-70
2021/12/16 04:09:51;;;;;;;98.87;36.80;;;;;;;;;;5005580;28;20179;-71
2021/12/16 04:12:20;;;;;;;94.43;37.77;;;;;;;;;;4997346;28;20201;-70
2021/12/16 04:14:52;;;;;;;94.40;36.00;;;;;;;;;;5005407;28;20191;-70
2021/12/16 04:17:27;;;;;;;97.07;37.87;;;;;;;;;;5007638;28;20232;-70
2021/12/16 04:19:53;;;;;;;106.63;36.70;;;;;;;;;;4999414;28;20198;-71
2021/12/16 04:22:31;;;;;;;104.77;38.00;;;;;;;;;;5005927;28;20230;-71
2021/12/16 04:25:01;;;;;;;108.27;36.57;;;;;;;;;;4994751;28;20203;-71
2021/12/16 04:27:26;;;;;;;104.50;37.97;;;;;;;;;;5008778;28;20187;-71
2021/12/16 04:29:52;;;;;;;113.40;39.03;;;;;;;;;;4999564;28;20270;-71
2021/12/16 04:32:19;;;;;;;102.80;39.40;;;;;;;;;;5007963;28;20253;-71
2021/12/16 04:34:45;;;;;;;106.27;38.97;;;;;;;;;;4995504;28;20571;-70
2021/12/16 04:37:11;;;;;;;108.80;38.23;;;;;;;;;;5007735;28;20190;-70
2021/12/16 04:39:39;;;;;;;105.40;37.77;;;;;;;;;;4997067;28;20229;-70
2021/12/16 04:42:06;;;;;;;113.13;37.80;;;;;;;;;;5005278;28;20217;-70
2021/12/16 04:44:32;;;;;;;103.70;39.20;;;;;;;;;;4999683;28;20705;-71
2021/12/16 04:46:59;;;;;;;111.60;39.83;;;;;;;;;;5006367;28;20238;-70
2021/12/16 04:49:25;;;;;;;103.60;36.93;;;;;;;;;;4998154;28;20178;-71
2021/12/16 04:51:54;;;;;;;101.97;37.93;;;;;;;;;;5005502;28;20234;-70
2021/12/16 04:54:23;;;;;;;105.00;38.27;;;;;;;;;;5004636;28;20289;-70
2021/12/16 04:56:48;;;;;;;101.20;36.97;;;;;;;;;;4993370;28;20175;-70
2021/12/16 04:59:16;;;;;;;101.47;38.30;;;;;;;;;;5010979;28;20188;-70
2021/12/16 05:01:46;;;;;;;98.73;36.83;;;;;;;;;;4997161;28;20210;-70
2021/12/16 05:04:12;;;;;;;97.03;37.43;;;;;;;;;;5008277;28;20194;-71
2021/12/16 05:06:38;;;;;;;103.07;38.03;;;;;;;;;;4992580;28;20237;-70
2021/12/16 05:09:05;;;;;;;98.87;36.17;;;;;;;;;;5008398;28;20202;-71
2021/12/16 05:11:34;;;;;;;104.27;36.67;;;;;;;;;;4998041;28;20183;-70
2021/12/16 05:13:59;;;;;;;102.07;35.80;;;;;;;;;;5007127;28;20887;-70
2021/12/16 05:16:25;;;;;;;102.13;35.90;;;;;;;;;;4998889;28;20194;-71
2021/12/16 05:18:53;;;;;;;96.97;36.97;;;;;;;;;;5016546;28;20225;-70
2021/12/16 05:21:46;;;;;;;101.13;36.43;;;;;;;;;;4990781;28;20223;-70
2021/12/16 05:24:27;;;;;;;99.67;37.93;;;;;;;;;;5001337;28;20198;-70
2021/12/16 05:26:58;;;;;;;95.83;36.63;;;;;;;;;;4995997;28;20234;-70
2021/12/16 05:29:24;;;;;;;105.03;38.47;;;;;;;;;;5002195;28;20234;-71
2021/12/16 05:31:50;;;;;;;96.37;36.73;;;;;;;;;;4995396;28;20195;-70
2021/12/16 05:34:16;;;;;;;95.78;35.58;;;;;;;;;;5002388;28;20329;-70
2021/12/16 05:36:42;;;;;;;92.83;35.17;;;;;;;;;;5000371;28;20277;-70
2021/12/16 05:39:10;;;;;;;85.40;35.07;;;;;;;;;;5005938;28;20171;-70
2021/12/16 05:41:35;;;;;;;89.57;35.90;;;;;;;;;;5006615;28;20207;-71
2021/12/16 05:44:01;;;;;;;91.70;35.58;;;;;;;;;;4993529;28;20261;-71
2021/12/16 05:46:27;;;;;;;92.35;34.95;;;;;;;;;;5005823;28;20183;-70
2021/12/16 05:48:54;;;;;;;90.95;35.25;;;;;;;;;;4995081;28;20228;-70
2021/12/16 05:51:23;;;;;;;96.53;34.85;;;;;;;;;;5006445;28;20212;-70
2021/12/16 05:53:51;;;;;;;90.00;35.03;;;;;;;;;;4995415;28;20191;-70
2021/12/16 05:56:18;;;;;;;92.07;34.93;;;;;;;;;;5007913;28;20286;-70
2021/12/16 05:58:43;;;;;;;85.63;33.67;;;;;;;;;;4995298;28;20198;-71
2021/12/16 06:01:15;;;;;;;90.87;35.10;;;;;;;;;;5006536;28;20206;-70
2021/12/16 06:03:41;;;;;;;98.07;36.17;;;;;;;;;;4997361;28;20211;-70
2021/12/16 06:06:07;;;;;;;96.87;36.10;;;;;;;;;;5010757;28;20195;-70
2021/12/16 06:08:33;;;;;;;102.57;36.07;;;;;;;;;;4995084;28;20198;-71
2021/12/16 06:13:36;;;;;;;90.77;34.53;;;;;;;;;;5004704;28;20219;-70
2021/12/16 06:29:27;;;;;;;97.10;35.33;;;;;;;;;;4999145;28;20230;-71
2021/12/16 06:31:52;;;;;;;90.43;34.87;;;;;;;;;;5003832;28;20219;-71
2021/12/16 06:34:18;;;;;;;90.50;34.88;;;;;;;;;;4998858;28;20198;-71
2021/12/16 06:36:44;;;;;;;86.50;33.22;;;;;;;;;;4995808;28;20591;-71
2021/12/16 06:39:09;;;;;;;100.47;35.37;;;;;;;;;;5004823;28;20670;-71
2021/12/16 06:41:37;;;;;;;110.73;36.17;;;;;;;;;;5000369;28;20570;-71
2021/12/16 06:44:14;;;;;;;113.00;36.67;;;;;;;;;;5012308;28;20198;-71
2021/12/16 06:46:41;;;;;;;118.87;35.03;;;;;;;;;;4995099;28;20256;-71
2021/12/16 06:49:09;;;;;;;107.27;37.40;;;;;;;;;;5005153;28;20206;-71
2021/12/16 06:51:46;;;;;;;105.33;36.03;;;;;;;;;;4991417;28;20183;-71
2021/12/16 06:54:19;;;;;;;100.57;35.47;;;;;;;;;;5006885;28;20644;-70
2021/12/16 06:59:28;;;;;;;108.00;37.50;;;;;;;;;;5002401;28;20230;-71
2021/12/16 07:02:02;;;;;;;107.70;35.80;;;;;;;;;;5004728;28;20521;-71
2021/12/16 07:04:28;;;;;;;111.97;36.97;;;;;;;;;;5002540;28;20553;-71
2021/12/16 07:06:54;;;;;;;104.17;35.83;;;;;;;;;;4989245;28;20657;-71
2021/12/16 07:09:21;;;;;;;111.97;37.93;;;;;;;;;;5001472;28;20693;-71
2021/12/16 07:11:53;;;;;;;110.95;36.70;;;;;;;;;;5001663;28;20244;-70
2021/12/16 07:14:23;;;;;;;106.00;35.40;;;;;;;;;;5003225;28;20205;-71
2021/12/16 07:16:52;;;;;;;105.63;35.60;;;;;;;;;;4993561;28;20636;-71
2021/12/16 07:19:18;;;;;;;102.40;36.73;;;;;;;;;;5011379;28;20261;-71
2021/12/16 07:21:44;;;;;;;103.77;35.50;;;;;;;;;;5007226;28;20321;-71
2021/12/16 07:24:13;;;;;;;106.40;35.87;;;;;;;;;;5001819;28;20197;-71
2021/12/16 07:26:38;;;;;;;106.70;36.63;;;;;;;;;;5008351;28;20186;-71
2021/12/16 07:29:05;;;;;;;97.50;35.15;;;;;;;;;;4995722;28;20202;-71
2021/12/16 07:31:31;;;;;;;93.73;33.90;;;;;;;;;;5006274;28;20646;-71
2021/12/16 07:33:57;;;;;;;101.10;35.67;;;;;;;;;;5008328;28;20384;-71
2021/12/16 07:36:24;;;;;;;108.00;36.90;;;;;;;;;;5007343;28;20556;-71
2021/12/16 07:38:53;;;;;;;115.97;37.67;;;;;;;;;;4995642;28;20202;-71
2021/12/16 07:41:21;;;;;;;112.57;37.03;;;;;;;;;;5003574;28;20203;-71
2021/12/16 07:44:09;;;;;;;106.67;35.93;;;;;;;;;;4993753;28;20324;-71
2021/12/16 07:46:57;;;;;;;108.17;36.47;;;;;;;;;;5003164;28;20167;-71
2021/12/16 07:49:26;;;;;;;102.67;35.47;;;;;;;;;;4996257;28;20190;-70
2021/12/16 07:51:53;;;;;;;97.93;35.50;;;;;;;;;;5010054;28;20691;-71
2021/12/16 07:54:21;;;;;;;110.53;35.67;;;;;;;;;;5006924;28;20562;-71
2021/12/16 07:56:48;;;;;;;99.87;36.03;;;;;;;;;;5013470;28;20186;-71
2021/12/16 07:59:14;;;;;;;93.23;33.03;;;;;;;;;;5004081;28;20191;-71
2021/12/16 08:01:41;;;;;;;87.67;31.87;;;;;;;;;;5012952;28;20692;-71
2021/12/16 08:04:10;;;;;;;81.97;31.07;;;;;;;;;;4998340;28;20318;-71
2021/12/16 08:06:35;;;;;;;83.23;30.93;;;;;;;;;;5007830;28;20694;-71
2021/12/16 08:09:07;;;;;;;84.27;32.13;;;;;;;;;;4999102;28;20289;-71
2021/12/16 08:11:37;;;;;;;88.95;32.03;;;;;;;;;;4996420;28;20217;-71
2021/12/16 08:14:03;;;;;;;89.00;34.13;;;;;;;;;;5001972;28;20273;-71
2021/12/16 08:16:30;;;;;;;85.57;31.37;;;;;;;;;;4999568;28;20307;-71
2021/12/16 08:18:57;;;;;;;83.93;32.67;;;;;;;;;;5001258;28;20273;-71
2021/12/16 08:21:24;;;;;;;103.10;34.33;;;;;;;;;;4994411;28;20678;-71
2021/12/16 08:23:50;;;;;;;96.73;33.93;;;;;;;;;;5002446;28;20221;-71
2021/12/16 08:26:16;;;;;;;97.65;31.85;;;;;;;;;;4998645;28;20221;-71
2021/12/16 08:28:44;;;;;;;109.28;33.17;;;;;;;;;;5008650;28;20199;-71
2021/12/16 08:31:10;;;;;;;109.47;32.17;;;;;;;;;;4995150;28;20266;-71
2021/12/16 08:33:38;;;;;;;95.37;31.13;;;;;;;;;;5004724;28;20262;-70
2021/12/16 08:36:05;;;;;;;91.47;31.10;;;;;;;;;;4999497;28;20202;-71
2021/12/16 08:38:31;;;;;;;92.63;30.83;;;;;;;;;;5009157;28;20540;-70
2021/12/16 08:41:04;;;;;;;90.73;31.90;;;;;;;;;;5006720;28;20684;-70
2021/12/16 08:43:29;;;;;;;92.15;30.67;;;;;;;;;;4999896;28;20269;-70
2021/12/16 08:45:55;;;;;;;87.47;31.87;;;;;;;;;;4999126;28;20194;-70
2021/12/16 08:48:21;;;;;;;89.20;29.93;;;;;;;;;;4999069;28;20607;-70
2021/12/16 08:50:49;;;;;;;88.37;30.37;;;;;;;;;;5006441;28;20278;-71
2021/12/16 08:53:16;;;;;;;92.23;29.50;;;;;;;;;;4996730;28;20201;-70
2021/12/16 08:55:42;;;;;;;101.13;30.20;;;;;;;;;;5010612;28;20230;-70
2021/12/16 08:58:08;;;;;;;91.30;29.27;;;;;;;;;;4998784;28;20599;-71
2021/12/16 09:00:39;;;;;;;92.90;28.60;;;;;;;;;;5007090;28;20220;-71
2021/12/16 09:03:04;;;;;;;95.30;29.47;;;;;;;;;;4997953;28;20205;-71
2021/12/16 09:05:30;;;;;;;81.68;28.30;;;;;;;;;;5004398;28;20552;-71
2021/12/16 09:07:56;;;;;;;95.77;27.63;;;;;;;;;;4998680;28;20200;-71
2021/12/16 09:10:28;;;;;;;87.20;27.50;;;;;;;;;;5007833;28;20191;-70
2021/12/16 09:13:03;;;;;;;90.97;28.20;;;;;;;;;;4996775;28;23177;-70
2021/12/16 09:15:47;;;;;;;94.77;27.93;;;;;;;;;;5004768;28;20182;-71
2021/12/16 09:18:14;;;;;;;97.17;27.60;;;;;;;;;;4983472;28;20646;-71
2021/12/16 09:20:40;;;;;;;96.47;28.47;;;;;;;;;;5003441;28;20202;-71
2021/12/16 09:23:08;;;;;;;74.00;26.23;;;;;;;;;;5006624;28;20713;-70
2021/12/16 09:25:34;;;;;;;88.43;27.70;;;;;;;;;;4996361;28;20628;-70
2021/12/16 09:28:00;;;;;;;81.73;25.80;;;;;;;;;;5007240;28;20212;-71
2021/12/16 09:30:28;;;;;;;90.47;27.90;;;;;;;;;;4998222;28;20615;-71
2021/12/16 09:32:57;;;;;;;79.60;26.17;;;;;;;;;;5008302;28;20194;-70
2021/12/16 09:35:23;;;;;;;86.60;27.03;;;;;;;;;;4998034;28;20669;-70
2021/12/16 09:37:48;;;;;;;95.50;27.67;;;;;;;;;;5007616;28;20191;-71
2021/12/16 09:40:21;;;;;;;84.37;28.20;;;;;;;;;;4995432;28;20211;-70
2021/12/16 09:42:48;;;;;;;77.15;27.17;;;;;;;;;;5006284;28;20583;-71
2021/12/16 09:45:15;;;;;;;87.23;27.70;;;;;;;;;;4996769;28;20694;-71
2021/12/16 09:47:43;;;;;;;82.43;27.70;;;;;;;;;;5002746;28;20182;-71
2021/12/16 09:50:12;;;;;;;71.67;25.67;;;;;;;;;;4999960;28;20643;-71
2021/12/16 09:52:38;;;;;;;68.20;23.90;;;;;;;;;;5006116;28;20202;-70
2021/12/16 09:55:05;;;;;;;68.03;23.63;;;;;;;;;;4999354;28;20223;-71
2021/12/16 09:57:31;;;;;;;61.53;24.40;;;;;;;;;;5005241;28;20178;-71
2021/12/16 09:59:57;;;;;;;69.33;26.13;;;;;;;;;;5012598;28;20195;-70
2021/12/16 10:02:22;;;;;;;66.70;25.83;;;;;;;;;;4997635;28;20765;-71
2021/12/16 10:04:49;;;;;;;70.73;24.70;;;;;;;;;;5008508;28;20214;-71
2021/12/16 10:07:22;;;;;;;73.53;25.98;;;;;;;;;;5000034;28;20190;-70
2021/12/16 10:09:50;;;;;;;69.55;26.85;;;;;;;;;;5005925;28;20217;-71
2021/12/16 10:12:21;;;;;;;66.40;25.58;;;;;;;;;;4999550;28;20206;-70
2021/12/16 10:17:23;;;;;;;57.67;23.58;;;;;;;;;;5002543;28;20195;-70
2021/12/16 10:19:49;;;;;;;58.65;23.98;;;;;;;;;;5000690;28;20191;-71
2021/12/16 10:22:24;;;;;;;56.25;23.45;;;;;;;;;;5002539;28;20237;-71
2021/12/16 10:24:53;;;;;;;58.45;23.80;;;;;;;;;;5009316;28;20201;-71
2021/12/16 10:27:23;;;;;;;63.50;25.42;;;;;;;;;;5002986;28;20195;-71
2021/12/16 10:30:04;;;;;;;70.00;26.23;;;;;;;;;;5007746;28;20282;-71
2021/12/16 10:32:36;;;;;;;64.63;25.83;;;;;;;;;;5007070;28;20187;-71
2021/12/16 10:35:10;;;;;;;62.55;24.50;;;;;;;;;;5008382;28;20203;-71
2021/12/16 10:37:39;;;;;;;56.15;24.50;;;;;;;;;;4998951;28;20194;-71
2021/12/16 10:40:30;;;;;;;54.20;23.05;;;;;;;;;;5007710;28;20218;-70
2021/12/16 10:42:58;;;;;;;59.95;24.02;;;;;;;;;;5008401;28;20206;-71
2021/12/16 10:45:31;;;;;;;58.55;24.65;;;;;;;;;;5011101;28;20460;-70
2021/12/16 10:48:19;;;;;;;59.45;24.73;;;;;;;;;;5002184;28;20277;-71
2021/12/16 10:50:58;;;;;;;62.47;24.83;;;;;;;;;;5007126;28;20183;-71
2021/12/16 10:53:46;;;;;;;61.17;24.67;;;;;;;;;;5000328;28;20585;-71
2021/12/16 10:56:11;;;;;;;55.45;24.10;;;;;;;;;;5007089;28;20284;-71
2021/12/16 10:59:04;;;;;;;55.30;24.17;;;;;;;;;;5003453;28;20629;-71
2021/12/16 11:01:38;;;;;;;55.97;23.65;;;;;;;;;;5006472;28;20206;-71
2021/12/16 11:04:10;;;;;;;54.17;23.08;;;;;;;;;;5002135;28;20280;-71
2021/12/16 11:06:39;;;;;;;60.42;23.95;;;;;;;;;;5016461;28;20215;-71
2021/12/16 11:09:25;;;;;;;56.97;24.50;;;;;;;;;;4998379;28;20191;-71
2021/12/16 11:12:24;;;;;;;48.92;22.55;;;;;;;;;;5011455;28;20224;-71
2021/12/16 11:15:07;;;;;;;48.38;22.13;;;;;;;;;;5003376;28;20186;-71
2021/12/16 11:18:11;;;;;;;50.78;21.55;;;;;;;;;;5008478;28;20191;-71
2021/12/16 11:20:55;;;;;;;45.72;22.80;;;;;;;;;;4981546;28;20220;-71
2021/12/16 11:23:26;;;;;;;48.40;22.83;;;;;;;;;;5001604;28;20225;-71
2021/12/16 11:25:53;;;;;;;52.50;23.85;;;;;;;;;;5005987;28;20651;-71
2021/12/16 11:28:25;;;;;;;47.47;22.98;;;;;;;;;;5011404;28;21554;-71
2021/12/16 11:30:59;;;;;;;53.45;24.58;;;;;;;;;;4999266;28;20182;-71
2021/12/16 11:33:27;;;;;;;55.45;23.60;;;;;;;;;;5005568;28;20204;-71
2021/12/16 11:35:58;;;;;;;50.13;23.90;;;;;;;;;;4999308;28;20230;-71
2021/12/16 11:38:24;;;;;;;54.92;23.52;;;;;;;;;;5012127;28;20183;-71
2021/12/16 11:41:27;;;;;;;52.22;23.58;;;;;;;;;;5000079;28;20216;-71
2021/12/16 11:44:16;;;;;;;50.15;22.92;;;;;;;;;;5010429;28;20297;-71
2021/12/16 11:46:52;;;;;;;48.83;23.40;;;;;;;;;;5000364;28;20191;-71
2021/12/16 11:49:24;;;;;;;51.60;23.77;;;;;;;;;;4986983;28;20561;-71
2021/12/16 11:52:07;;;;;;;54.67;23.17;;;;;;;;;;4997511;28;20216;-71
2021/12/16 11:54:40;;;;;;;53.22;23.42;;;;;;;;;;5007925;28;20214;-71
2021/12/16 11:57:05;;;;;;;49.22;21.75;;;;;;;;;;4997996;28;20294;-71
2021/12/16 11:59:40;;;;;;;52.40;22.30;;;;;;;;;;5007483;28;20186;-71
2021/12/16 12:02:24;;;;;;;48.85;23.20;;;;;;;;;;4998707;28;20234;-71
2021/12/16 12:04:50;;;;;;;55.00;24.15;;;;;;;;;;5004356;28;20187;-71
2021/12/16 12:07:18;;;;;;;52.20;23.80;;;;;;;;;;4998556;28;20897;-71
2021/12/16 12:09:48;;;;;;;58.72;25.60;;;;;;;;;;5010344;28;20194;-71
2021/12/16 12:12:14;;;;;;;53.05;24.48;;;;;;;;;;4996370;28;20183;-71
2021/12/16 12:14:41;;;;;;;59.90;25.58;;;;;;;;;;5008580;28;20197;-71
2021/12/16 12:17:19;;;;;;;63.67;27.15;;;;;;;;;;5001498;28;20197;-71
2021/12/16 12:19:48;;;;;;;54.40;25.83;;;;;;;;;;5007565;28;20178;-71
2021/12/16 12:22:15;;;;;;;64.10;25.98;;;;;;;;;;5002450;28;20234;-71
2021/12/16 12:24:46;;;;;;;59.50;27.40;;;;;;;;;;4997436;28;20182;-71
2021/12/16 12:27:16;;;;;;;62.53;26.40;;;;;;;;;;5007325;28;20248;-71
2021/12/16 12:29:51;;;;;;;65.57;28.13;;;;;;;;;;5005168;28;20715;-71
2021/12/16 12:32:24;;;;;;;65.47;28.17;;;;;;;;;;5008840;28;20218;-71
2021/12/16 12:34:54;;;;;;;63.13;27.35;;;;;;;;;;5000374;28;20298;-71
2021/12/16 12:37:22;;;;;;;66.35;28.08;;;;;;;;;;5018201;28;20180;-71
2021/12/16 12:39:52;;;;;;;57.95;25.98;;;;;;;;;;5000361;28;20278;-71
2021/12/16 12:42:18;;;;;;;62.60;25.17;;;;;;;;;;5007986;28;20214;-71
2021/12/16 12:44:44;;;;;;;55.45;26.05;;;;;;;;;;5007843;28;20683;-71
2021/12/16 12:47:21;;;;;;;53.00;23.70;;;;;;;;;;5005063;28;20210;-71
2021/12/16 12:49:46;;;;;;;50.17;22.63;;;;;;;;;;4999235;28;20187;-70
2021/12/16 12:52:17;;;;;;;48.53;21.98;;;;;;;;;;5007169;28;20183;-70
2021/12/16 12:54:57;;;;;;;51.30;23.88;;;;;;;;;;4996633;28;20216;-70
2021/12/16 12:57:33;;;;;;;56.47;23.95;;;;;;;;;;5001592;28;20198;-71
2021/12/16 13:00:01;;;;;;;52.90;24.13;;;;;;;;;;5000384;28;20185;-70
2021/12/16 13:02:35;;;;;;;51.30;23.60;;;;;;;;;;5005548;28;20189;-70
2021/12/16 13:05:21;;;;;;;47.72;22.60;;;;;;;;;;4995134;28;20251;-70
2021/12/16 13:07:54;;;;;;;52.90;23.15;;;;;;;;;;5013192;28;20182;-70
2021/12/16 13:10:24;;;;;;;52.35;25.08;;;;;;;;;;4995201;28;20194;-70
2021/12/16 13:13:14;;;;;;;55.33;24.98;;;;;;;;;;5005835;28;20257;-70
2021/12/16 13:32:19;;;;;;;58.03;24.58;;;;;;;;;;5006318;28;20190;-70
2021/12/16 13:37:49;;;;;;;57.38;24.63;;;;;;;;;;4997110;28;20198;-70
2021/12/16 13:40:14;;;;;;;60.65;25.45;;;;;;;;;;5004245;28;20183;-69
2021/12/16 13:43:21;;;;;;;55.13;23.75;;;;;;;;;;4997837;28;20191;-71
2021/12/16 13:46:01;;;;;;;63.13;25.42;;;;;;;;;;4995786;28;20289;-70
2021/12/16 14:03:43;;;;;;;67.10;25.33;;;;;;;;;;4974535;28;20705;-69
2021/12/16 14:06:13;;;;;;;58.65;23.67;;;;;;;;;;4991857;28;20195;-69
2021/12/16 14:08:44;;;;;;;60.70;25.73;;;;;;;;;;4978764;28;20191;-70
2021/12/16 14:14:42;;;;;;;55.20;23.88;;;;;;;;;;4986784;28;20289;-70
2021/12/16 14:17:27;;;;;;;59.47;26.25;;;;;;;;;;5001390;28;20228;-70
2021/12/16 14:25:33;;;;;;;58.97;24.73;;;;;;;;;;4991253;28;20206;-70
2021/12/16 14:31:13;;;;;;;51.72;24.02;;;;;;;;;;4993254;28;20565;-70
2021/12/16 14:39:56;;;;;;;59.30;25.20;;;;;;;;;;4993182;28;20571;-71
2021/12/16 14:50:08;;;;;;;62.58;24.70;;;;;;;;;;4996032;28;20656;-71
2021/12/16 14:52:34;;;;;;;63.03;24.83;;;;;;;;;;5007633;28;20221;-71
2021/12/16 14:55:09;;;;;;;57.92;23.75;;;;;;;;;;4993931;28;20572;-71
2021/12/16 14:57:39;;;;;;;56.05;24.63;;;;;;;;;;5003313;28;20659;-71
2021/12/16 15:00:34;;;;;;;57.00;24.38;;;;;;;;;;4997566;28;20579;-70
2021/12/16 15:03:29;;;;;;;59.75;24.23;;;;;;;;;;5005929;28;20202;-71
2021/12/16 15:06:01;;;;;;;57.25;23.17;;;;;;;;;;4991341;28;20198;-70
2021/12/16 15:08:45;;;;;;;66.07;25.25;;;;;;;;;;5004867;28;20187;-70
2021/12/16 15:11:16;;;;;;;62.38;24.00;;;;;;;;;;4993514;28;20191;-71
2021/12/16 15:13:56;;;;;;;55.35;22.38;;;;;;;;;;5004496;28;20190;-70
2021/12/16 15:16:46;;;;;;;59.92;22.05;;;;;;;;;;4998579;28;20265;-70
2021/12/16 15:38:38;;;;;;;60.33;21.63;;;;;;;;;;4994470;28;20229;-71
2021/12/16 15:43:36;;;;;;;66.30;23.80;;;;;;;;;;5002122;28;20669;-71
2021/12/16 15:46:04;;;;;;;68.03;24.02;;;;;;;;;;5002384;28;20245;-71
2021/12/16 15:48:31;;;;;;;73.03;26.30;;;;;;;;;;4993417;28;20204;-71
2021/12/16 15:50:58;;;;;;;76.22;24.58;;;;;;;;;;4998931;28;20183;-71
2021/12/16 15:53:29;;;;;;;74.78;26.33;;;;;;;;;;4995594;28;20191;-70
2021/12/16 15:56:08;;;;;;;77.38;25.73;;;;;;;;;;5000949;28;20297;-71
2021/12/16 15:58:38;;;;;;;77.68;27.13;;;;;;;;;;4991950;28;20214;-70
2021/12/16 16:01:11;;;;;;;77.10;25.98;;;;;;;;;;5001029;28;20207;-70
2021/12/16 16:03:37;;;;;;;72.78;25.35;;;;;;;;;;4993483;28;20922;-71
2021/12/16 16:06:06;;;;;;;72.90;26.47;;;;;;;;;;5000922;28;20225;-70
2021/12/16 16:08:35;;;;;;;77.95;27.58;;;;;;;;;;5000934;28;20273;-70
2021/12/16 16:11:04;;;;;;;74.45;25.70;;;;;;;;;;4988501;28;20187;-70
2021/12/16 16:13:36;;;;;;;76.57;25.58;;;;;;;;;;5001382;28;20274;-71
2021/12/16 16:16:06;;;;;;;75.22;25.48;;;;;;;;;;4989689;28;20529;-71
2021/12/16 16:18:34;;;;;;;73.38;26.88;;;;;;;;;;4995181;28;20182;-70
2021/12/16 16:21:09;;;;;;;77.00;25.00;;;;;;;;;;4995548;28;20238;-70
2021/12/16 16:23:37;;;;;;;80.22;23.40;;;;;;;;;;5005713;28;20198;-70
2021/12/16 16:26:06;;;;;;;75.82;24.92;;;;;;;;;;5000148;28;20190;-70
2021/12/16 16:28:32;;;;;;;86.53;26.63;;;;;;;;;;5009294;28;20186;-70
2021/12/16 16:30:59;;;;;;;85.10;25.38;;;;;;;;;;5002125;28;20251;-70
2021/12/16 16:33:26;;;;;;;87.53;26.73;;;;;;;;;;5003638;28;20217;-71
2021/12/16 16:36:00;;;;;;;104.70;27.00;;;;;;;;;;4999804;28;20191;-71
2021/12/16 16:38:30;;;;;;;102.40;28.50;;;;;;;;;;5011988;28;20528;-71
2021/12/16 16:40:58;;;;;;;96.18;27.27;;;;;;;;;;5004658;28;20242;-70
2021/12/16 16:43:26;;;;;;;87.00;26.45;;;;;;;;;;5008781;28;20221;-71
2021/12/16 16:45:54;;;;;;;95.67;26.83;;;;;;;;;;5000010;28;20195;-71
2021/12/16 16:48:48;;;;;;;86.93;26.83;;;;;;;;;;5016905;28;20254;-70
2021/12/16 16:51:19;;;;;;;85.80;27.17;;;;;;;;;;5001497;28;20536;-70
2021/12/16 16:53:51;;;;;;;94.80;27.70;;;;;;;;;;5014113;28;20213;-70
2021/12/16 16:56:49;;;;;;;98.88;28.27;;;;;;;;;;5002573;28;20209;-70
2021/12/16 16:59:37;;;;;;;94.00;27.95;;;;;;;;;;5003221;28;20293;-70
2021/12/16 17:02:31;;;;;;;104.60;29.00;;;;;;;;;;4996914;28;20226;-71
2021/12/16 17:05:12;;;;;;;111.35;30.17;;;;;;;;;;5002735;28;20279;-71
2021/12/16 17:07:48;;;;;;;99.13;28.00;;;;;;;;;;4998050;28;20273;-70
2021/12/16 17:10:24;;;;;;;90.37;27.07;;;;;;;;;;5008631;28;20201;-70
2021/12/16 17:12:58;;;;;;;103.07;29.07;;;;;;;;;;4994937;28;20191;-71
2021/12/16 17:15:37;;;;;;;102.10;27.47;;;;;;;;;;5011127;28;20346;-71
2021/12/16 17:18:04;;;;;;;104.00;28.43;;;;;;;;;;4999657;28;20684;-71
2021/12/16 17:20:29;;;;;;;104.53;27.60;;;;;;;;;;5008610;28;20273;-71
2021/12/16 17:22:58;;;;;;;109.67;27.77;;;;;;;;;;5003954;28;20333;-70
2021/12/16 17:25:23;;;;;;;120.23;30.57;;;;;;;;;;5008572;28;20202;-71
2021/12/16 17:27:56;;;;;;;107.53;29.67;;;;;;;;;;4998204;28;20218;-70
2021/12/16 17:30:31;;;;;;;105.77;28.87;;;;;;;;;;5007166;28;20217;-70
2021/12/16 17:32:57;;;;;;;114.68;28.88;;;;;;;;;;5000599;28;20240;-71
2021/12/16 17:35:37;;;;;;;97.93;28.38;;;;;;;;;;5009055;28;20612;-71
2021/12/16 17:38:11;;;;;;;108.25;30.20;;;;;;;;;;5006704;28;20273;-71
2021/12/16 17:40:44;;;;;;;104.93;31.30;;;;;;;;;;5007117;28;20254;-70
2021/12/16 17:43:14;;;;;;;113.50;31.40;;;;;;;;;;5007771;28;20526;-71
2021/12/16 17:45:50;;;;;;;116.13;31.60;;;;;;;;;;4997113;28;20198;-70
2021/12/16 17:48:20;;;;;;;114.03;32.57;;;;;;;;;;5006791;28;20672;-71
2021/12/16 17:50:49;;;;;;;113.90;31.37;;;;;;;;;;4994201;28;20233;-70
2021/12/16 17:53:16;;;;;;;111.93;33.80;;;;;;;;;;5003584;28;20524;-70
2021/12/16 17:55:55;;;;;;;124.20;36.38;;;;;;;;;;4995449;28;20211;-70
2021/12/16 17:58:30;;;;;;;125.03;34.83;;;;;;;;;;5005944;28;20183;-71
2021/12/16 18:01:10;;;;;;;125.18;33.60;;;;;;;;;;4995185;28;20693;-71
2021/12/16 18:03:49;;;;;;;137.47;35.33;;;;;;;;;;5009841;28;20200;-71
2021/12/16 18:06:37;;;;;;;132.30;35.87;;;;;;;;;;4996029;28;21249;-71
2021/12/16 18:09:09;;;;;;;127.13;34.77;;;;;;;;;;5004762;28;20559;-71
2021/12/16 18:11:37;;;;;;;138.43;35.50;;;;;;;;;;4997431;28;20190;-70
2021/12/16 18:14:08;;;;;;;146.73;37.47;;;;;;;;;;5007043;28;20198;-71